Pagina principale
METAR-TAF:

METAR-TAF

Aeroporti :

Cannes, Francia

latitudine: 43-33N, longitudine: 006-57E, altezza: 3 m

Osservazione

Il bollettino è stato emesso 20 minuti fa, alle 11:30 UTC
Vento 7 kt da sud, variando fra sud/sud-est e sud/sud-ovest
Temperature 28°C
Umidità 58%
Pressione 1018 hPa
Visibilità 10 km o più
nessuna nube inferiore a 1500 m e nessun cumulonembo

METAR: LFMD 241130Z AUTO 18007KT 150V210 CAVOK 28/19 Q1018 NOSIG

Ora: 13:50 (11:50 UTC)

Previsione

Il bollettino è stato emesso 3 ore e 50 minuti fa, alle 08:00 UTC
Previsione valida dal 24 alle 09 UTC al 25 alle 09 UTC
Vento 6 kt da sud/sud-est
Visibilità 10 km o più
nessuna nube inferiore a 1500 m e nessun cumulonembo
Evoluzione graduale
dal 24 alle 18 UTC al 24 alle 20 UTC
Vento 3 kt da direzioni variabili
Evoluzione graduale
dal 25 alle 07 UTC al 25 alle 09 UTC
Vento 10 kt da est

TAF: LFMD 240800Z 2409/2509 16006KT CAVOK BECMG 2418/2420 VRB03KT BECMG 2507/2509 10010KT

Osservazioni e previsioni meteorologiche di più di 4000 aeroporti (messaggi METAR e TAF).

Le stazioni disponibili sono rappresentate dai dischi gialli e rossi sulla carta.

Puntare il mouse per vedere il nome della stazione.

Clicca sopra per visualizzare le osservazioni e previsioni meteorologiche.

Per cambiare la mappa : fare clic sui pulsanti verdi con una croce nera per ingrandire, il pulsante verde con un trattino per diminuire, o sulla freccia verde per le mappe adiacenti.


METAR-TAF: